createdAt,value
2018-01-15T00:00:33.145Z,21.67
2018-01-15T00:03:00.111Z,22.15
2018-01-15T00:05:27.044Z,22.00
2018-01-15T00:07:53.980Z,22.05
2018-01-15T00:10:20.896Z,23.33
2018-01-15T00:12:47.944Z,21.87
2018-01-15T00:15:14.904Z,24.15
2018-01-15T00:17:42.585Z,20.00
2018-01-15T00:20:09.509Z,22.13
2018-01-15T00:22:36.448Z,22.13
2018-01-15T00:25:03.360Z,21.45
2018-01-15T00:27:30.295Z,21.80
2018-01-15T00:29:57.213Z,21.48
2018-01-15T00:32:24.901Z,21.15
2018-01-15T00:34:51.812Z,23.20
2018-01-15T00:37:18.745Z,20.90
2018-01-15T00:39:45.659Z,22.90
2018-01-15T00:42:12.616Z,22.58
2018-01-15T00:44:39.528Z,20.02
2018-01-15T00:47:06.460Z,20.20
2018-01-15T00:49:33.394Z,17.70
2018-01-15T00:52:00.321Z,22.17
2018-01-15T00:54:27.247Z,22.08
2018-01-15T00:56:54.167Z,24.73
2018-01-15T00:59:21.860Z,23.30
2018-01-15T01:01:48.772Z,19.73
2018-01-15T01:04:16.466Z,23.12
2018-01-15T01:06:43.387Z,22.92
2018-01-15T01:09:11.080Z,17.65
2018-01-15T01:11:38.012Z,20.75
2018-01-15T01:14:04.944Z,22.20
2018-01-15T01:16:31.864Z,21.62
2018-01-15T01:18:58.787Z,21.50
2018-01-15T01:21:25.722Z,23.50
2018-01-15T01:23:52.644Z,21.90
2018-01-15T01:26:19.581Z,20.98
2018-01-15T01:28:46.501Z,22.62
2018-01-15T01:31:14.201Z,21.65
2018-01-15T01:33:41.112Z,21.70
2018-01-15T01:36:08.038Z,20.58
2018-01-15T01:38:35.731Z,22.85
2018-01-15T01:41:02.649Z,21.17
2018-01-15T01:43:30.345Z,28.73
2018-01-15T01:45:57.257Z,25.80
2018-01-15T01:48:24.951Z,22.30
2018-01-15T01:50:51.861Z,22.23
2018-01-15T01:53:19.563Z,22.70
2018-01-15T01:55:46.528Z,22.35
2018-01-15T01:58:13.840Z,22.08
2018-01-15T02:00:40.752Z,21.12
2018-01-15T02:03:07.672Z,22.27
2018-01-15T02:05:34.604Z,22.90
2018-01-15T02:08:01.532Z,24.40
2018-01-15T02:10:28.452Z,22.55
2018-01-15T02:12:56.172Z,22.83
2018-01-15T02:15:23.081Z,23.70
2018-01-15T02:17:50.005Z,21.80
2018-01-15T02:20:17.676Z,22.95
2018-01-15T02:22:44.600Z,22.23
2018-01-15T02:25:12.281Z,23.80
2018-01-15T02:27:39.209Z,24.77
2018-01-15T02:30:06.888Z,21.92
2018-01-15T02:32:33.814Z,23.38
2018-01-15T02:35:01.496Z,24.90
2018-01-15T02:37:28.452Z,22.40
2018-01-15T02:39:55.377Z,20.35
2018-01-15T02:42:23.084Z,23.70
2018-01-15T02:44:50.757Z,24.27
2018-01-15T02:47:17.688Z,22.95
2018-01-15T02:49:44.599Z,23.83
2018-01-15T02:52:11.518Z,22.15
2018-01-15T02:54:39.205Z,23.08
2018-01-15T02:57:06.118Z,23.60
2018-01-15T02:59:33.803Z,23.10
2018-01-15T03:02:00.732Z,21.67
2018-01-15T03:04:28.409Z,21.23
2018-01-15T03:06:56.103Z,21.40
2018-01-15T03:09:23.013Z,21.42
2018-01-15T03:11:50.709Z,22.98
2018-01-15T03:14:17.619Z,24.50
2018-01-15T03:16:45.314Z,23.23
2018-01-15T03:19:12.224Z,26.62
2018-01-15T03:21:39.920Z,24.75
2018-01-15T03:24:06.832Z,24.85
2018-01-15T03:26:33.756Z,22.40
2018-01-15T03:29:01.431Z,24.80
2018-01-15T03:31:29.120Z,19.77
2018-01-15T03:33:56.058Z,23.02
2018-01-15T03:36:22.991Z,21.45
2018-01-15T03:38:50.744Z,24.37
2018-01-15T03:41:18.433Z,24.52
2018-01-15T03:43:45.348Z,21.83
2018-01-15T03:46:13.046Z,22.98
2018-01-15T03:48:39.957Z,24.90
2018-01-15T03:51:07.654Z,20.80
2018-01-15T03:53:34.564Z,23.23
2018-01-15T03:56:02.277Z,21.48
2018-01-15T03:58:29.192Z,19.87
2018-01-15T04:00:56.110Z,22.62
2018-01-15T04:03:23.820Z,22.70
2018-01-15T04:05:50.740Z,23.85
2018-01-15T04:08:17.668Z,22.65
2018-01-15T04:10:45.361Z,23.23
2018-01-15T04:13:12.282Z,23.83
2018-01-15T04:15:39.191Z,21.33
2018-01-15T04:18:06.113Z,22.08
2018-01-15T04:20:33.031Z,21.48
2018-01-15T04:22:59.928Z,18.52
2018-01-15T04:25:26.849Z,21.98
2018-01-15T04:27:56.909Z,23.45
2018-01-15T04:30:24.609Z,19.37
2018-01-15T04:32:51.525Z,21.08
2018-01-15T04:35:18.456Z,23.50
2018-01-15T04:37:46.132Z,22.80
2018-01-15T04:40:13.060Z,23.75
2018-01-15T04:42:40.747Z,21.15
2018-01-15T04:45:07.667Z,21.08
2018-01-15T04:47:35.359Z,23.50
2018-01-15T04:50:02.279Z,22.75
2018-01-15T04:52:29.968Z,22.25
2018-01-15T04:54:56.872Z,21.90
2018-01-15T04:57:23.800Z,21.27
2018-01-15T04:59:50.703Z,22.25
2018-01-15T05:02:17.623Z,21.35
2018-01-15T05:04:45.295Z,23.23
2018-01-15T05:07:12.221Z,21.35
2018-01-15T05:09:39.893Z,24.90
2018-01-15T05:12:07.581Z,25.27
2018-01-15T05:14:34.489Z,22.20
2018-01-15T05:17:02.190Z,22.98
2018-01-15T05:19:29.100Z,22.15
2018-01-15T05:21:56.795Z,20.20
2018-01-15T05:24:23.713Z,20.67
2018-01-15T05:26:50.639Z,21.98
2018-01-15T05:29:18.324Z,19.42
2018-01-15T05:31:45.273Z,22.30
2018-01-15T05:34:12.211Z,21.75
2018-01-15T05:36:39.148Z,22.52
2018-01-15T05:39:06.831Z,21.90
2018-01-15T05:41:33.768Z,22.60
2018-01-15T05:44:00.716Z,22.33
2018-01-15T05:46:27.635Z,22.52
2018-01-15T05:48:55.315Z,21.70
2018-01-15T05:51:22.238Z,22.85
2018-01-15T05:53:49.920Z,22.40
2018-01-15T05:56:16.843Z,22.20
2018-01-15T05:58:44.521Z,20.60
2018-01-15T06:01:12.212Z,20.12
2018-01-15T06:03:39.127Z,21.60
2018-01-15T06:06:06.838Z,21.95
2018-01-15T06:08:33.759Z,21.37
2018-01-15T06:11:00.709Z,22.23
2018-01-15T06:13:27.620Z,20.88
2018-01-15T06:15:55.311Z,22.60
2018-01-15T06:18:22.224Z,22.60
2018-01-15T06:20:49.921Z,19.62
2018-01-15T06:23:16.832Z,22.75
2018-01-15T06:25:44.530Z,20.48
2018-01-15T06:28:11.444Z,20.60
2018-01-15T06:30:38.380Z,21.08
2018-01-15T06:33:06.057Z,22.62
2018-01-15T06:35:32.989Z,18.45
2018-01-15T06:38:01.617Z,20.62
2018-01-15T06:40:28.520Z,24.55
2018-01-15T06:42:56.196Z,20.80
2018-01-15T06:45:23.111Z,21.90
2018-01-15T06:47:50.813Z,20.25
2018-01-15T06:50:17.744Z,21.70
2018-01-15T06:52:44.669Z,23.45
2018-01-15T06:55:12.348Z,21.33
2018-01-15T06:57:39.269Z,20.85
2018-01-15T07:00:06.982Z,22.15
2018-01-15T07:02:33.910Z,22.00
2018-01-15T07:05:00.838Z,21.50
2018-01-15T07:07:27.791Z,21.05
2018-01-15T07:09:55.066Z,22.45
2018-01-15T07:12:21.999Z,19.87
2018-01-15T07:14:48.915Z,19.77
2018-01-15T07:17:16.615Z,20.37
2018-01-15T07:19:43.526Z,19.98
2018-01-15T07:22:11.216Z,20.20
2018-01-15T07:24:38.120Z,15.80
2018-01-15T07:27:05.813Z,24.00
2018-01-15T07:29:32.721Z,21.17
2018-01-15T07:32:00.420Z,20.45
2018-01-15T07:34:27.332Z,19.60
2018-01-15T07:36:55.064Z,18.73
2018-01-15T07:39:21.972Z,19.25
2018-01-15T07:41:48.880Z,20.88
2018-01-15T07:44:16.592Z,20.35
2018-01-15T07:46:43.500Z,23.05
2018-01-15T07:49:11.171Z,17.95
2018-01-15T07:51:38.097Z,20.60
2018-01-15T07:54:05.780Z,22.37
2018-01-15T07:56:32.699Z,20.27
2018-01-15T07:59:00.372Z,21.20
2018-01-15T08:01:28.072Z,17.77
2018-01-15T08:03:54.988Z,21.80
2018-01-15T08:06:21.922Z,17.73
2018-01-15T08:08:49.600Z,20.10
2018-01-15T08:11:16.530Z,21.00
2018-01-15T08:13:44.216Z,19.00
2018-01-15T08:16:11.141Z,22.08
2018-01-15T08:18:38.817Z,21.10
2018-01-15T08:21:05.745Z,20.90
2018-01-15T08:23:33.425Z,20.92
2018-01-15T08:26:00.360Z,19.37
2018-01-15T08:28:27.264Z,22.55
2018-01-15T08:30:54.180Z,19.50
2018-01-15T08:33:21.096Z,21.00
2018-01-15T08:35:48.046Z,16.73
2018-01-15T08:38:14.968Z,20.02
2018-01-15T08:40:42.661Z,20.85
2018-01-15T08:43:09.554Z,21.98
2018-01-15T08:45:36.470Z,20.50
2018-01-15T08:48:03.372Z,18.77
2018-01-15T08:50:31.064Z,18.85
2018-01-15T08:52:57.972Z,18.33
2018-01-15T08:55:25.666Z,20.90
2018-01-15T08:57:52.623Z,19.60
2018-01-15T09:00:19.544Z,20.65
2018-01-15T09:02:46.443Z,19.65
2018-01-15T09:05:13.378Z,20.45
2018-01-15T09:07:40.304Z,19.98
2018-01-15T09:10:07.230Z,20.80
2018-01-15T09:12:34.136Z,20.50
2018-01-15T09:15:01.074Z,19.23
2018-01-15T09:17:27.983Z,19.35
2018-01-15T09:19:54.915Z,17.60
2018-01-15T09:22:21.826Z,19.30
2018-01-15T09:24:49.521Z,16.80
2018-01-15T09:27:16.434Z,17.73
2018-01-15T09:29:44.123Z,17.70
2018-01-15T09:32:15.954Z,18.05
2018-01-15T09:34:43.635Z,17.87
2018-01-15T09:37:10.537Z,19.48
2018-01-15T09:39:38.238Z,19.02
2018-01-15T09:42:05.149Z,18.17
2018-01-15T09:44:32.077Z,19.10
2018-01-15T09:46:58.983Z,20.17
2018-01-15T09:49:25.902Z,17.92
2018-01-15T09:51:53.566Z,20.15
2018-01-15T09:54:21.247Z,19.65
2018-01-15T09:56:48.152Z,18.37
2018-01-15T09:59:15.080Z,20.23
2018-01-15T10:01:41.997Z,18.55
2018-01-15T10:04:08.916Z,19.35
2018-01-15T10:06:35.824Z,19.05
2018-01-15T10:09:02.774Z,19.25
2018-01-15T10:11:30.479Z,18.80
2018-01-15T10:13:57.386Z,19.80
2018-01-15T10:16:25.067Z,18.37
2018-01-15T10:18:51.990Z,17.08
2018-01-15T10:21:19.672Z,15.88
2018-01-15T10:23:46.592Z,18.87
2018-01-15T10:26:13.508Z,18.25
2018-01-15T10:28:40.442Z,17.67
2018-01-15T10:31:07.354Z,20.45
2018-01-15T10:33:34.277Z,18.70
2018-01-15T10:36:01.960Z,18.30
2018-01-15T10:38:28.879Z,19.25
2018-01-15T10:40:56.561Z,18.35
2018-01-15T10:43:23.484Z,17.08
2018-01-15T10:45:51.155Z,20.37
2018-01-15T10:48:18.840Z,20.60
2018-01-15T10:50:45.746Z,19.15
2018-01-15T10:53:13.428Z,18.85
2018-01-15T10:55:41.096Z,19.58
2018-01-15T10:58:08.876Z,19.45
2018-01-15T11:00:35.780Z,20.12
2018-01-15T11:03:02.707Z,18.90
2018-01-15T11:05:29.623Z,19.73
2018-01-15T11:07:56.553Z,17.27
2018-01-15T11:10:23.460Z,17.60
2018-01-15T11:12:51.148Z,18.92
2018-01-15T11:15:18.058Z,19.05
2018-01-15T11:17:44.996Z,19.75
2018-01-15T11:20:11.919Z,20.15
2018-01-15T11:22:38.828Z,15.27
2018-01-15T11:25:05.771Z,18.98
2018-01-15T11:27:32.678Z,19.00
2018-01-15T11:29:59.612Z,18.77
2018-01-15T11:32:26.533Z,19.75
2018-01-15T11:34:53.539Z,18.90
2018-01-15T11:37:20.448Z,18.58
2018-01-15T11:39:47.369Z,17.20
2018-01-15T11:42:14.276Z,18.25
2018-01-15T11:44:41.508Z,16.58
2018-01-15T11:47:09.196Z,17.75
2018-01-15T11:49:36.140Z,17.12
2018-01-15T11:52:03.048Z,17.87
2018-01-15T11:54:29.973Z,20.58
2018-01-15T11:56:56.880Z,19.60
2018-01-15T11:59:23.784Z,16.95
2018-01-15T12:01:51.476Z,19.27
2018-01-15T12:04:18.421Z,15.95
2018-01-15T12:06:45.327Z,19.77
2018-01-15T12:09:12.254Z,17.30
2018-01-15T12:11:39.197Z,17.00
2018-01-15T12:14:06.100Z,18.05
2018-01-15T12:16:33.027Z,18.00
2018-01-15T12:19:00.708Z,20.55
2018-01-15T12:21:27.634Z,18.37
2018-01-15T12:23:55.325Z,17.60
2018-01-15T12:26:22.248Z,16.92
2018-01-15T12:28:49.154Z,17.02
2018-01-15T12:31:16.095Z,18.58
2018-01-15T12:33:43.005Z,16.55
2018-01-15T12:36:09.927Z,16.20
2018-01-15T12:38:36.835Z,17.00
2018-01-15T12:41:03.777Z,17.08
2018-01-15T12:43:30.700Z,16.98
2018-01-15T12:45:57.643Z,18.20
2018-01-15T12:48:24.572Z,17.05
2018-01-15T12:50:51.502Z,20.65
2018-01-15T12:53:18.425Z,18.20
2018-01-15T12:55:46.110Z,17.30
2018-01-15T12:58:13.029Z,18.27
2018-01-15T13:00:40.733Z,17.60
2018-01-15T13:03:07.648Z,16.60
2018-01-15T13:05:46.612Z,16.52
2018-01-15T13:08:25.368Z,20.88
2018-01-15T13:10:52.297Z,19.60
2018-01-15T13:13:19.365Z,19.20
2018-01-15T13:15:47.085Z,18.73
2018-01-15T13:18:13.993Z,17.02
2018-01-15T13:20:40.917Z,17.87
2018-01-15T13:23:08.968Z,17.30
2018-01-15T13:25:35.887Z,17.87
2018-01-15T13:28:03.791Z,18.73
2018-01-15T13:30:30.707Z,21.27
2018-01-15T13:32:57.616Z,19.42
2018-01-15T13:35:24.565Z,22.08
2018-01-15T13:37:51.478Z,19.90
2018-01-15T13:40:19.264Z,16.50
2018-01-15T13:42:47.112Z,16.48
2018-01-15T13:45:14.803Z,20.58
2018-01-15T13:47:41.723Z,18.08
2018-01-15T13:50:09.408Z,19.73
2018-01-15T13:52:36.315Z,18.60
2018-01-15T13:55:04.003Z,16.77
2018-01-15T13:57:30.909Z,17.80
2018-01-15T13:59:59.353Z,16.75
2018-01-15T14:02:26.262Z,16.48
2018-01-15T14:04:53.944Z,17.60
2018-01-15T14:07:20.854Z,18.30
2018-01-15T14:09:48.565Z,20.25
2018-01-15T14:12:15.487Z,19.42
2018-01-15T14:14:42.392Z,17.25
2018-01-15T14:17:09.321Z,17.83
2018-01-15T14:19:36.247Z,19.60
2018-01-15T14:22:03.180Z,16.05
2018-01-15T14:24:30.090Z,16.70
2018-01-15T14:26:57.792Z,15.10
2018-01-15T14:29:24.708Z,16.98
2018-01-15T14:31:51.628Z,17.23
2018-01-15T14:34:18.561Z,16.77
2018-01-15T14:36:45.496Z,15.40
2018-01-15T14:39:12.423Z,16.65
2018-01-15T14:41:39.347Z,16.70
2018-01-15T14:44:06.258Z,14.75
2018-01-15T14:46:34.005Z,17.50
2018-01-15T14:49:00.920Z,16.75
2018-01-15T14:51:27.866Z,16.95
2018-01-15T14:53:54.781Z,18.30
2018-01-15T14:56:21.689Z,15.95
2018-01-15T14:58:48.620Z,15.23
2018-01-15T15:01:15.527Z,16.55
2018-01-15T15:03:42.492Z,16.85
2018-01-15T15:06:09.428Z,16.83
2018-01-15T15:08:36.364Z,16.45
2018-01-15T15:11:04.060Z,14.02
2018-01-15T15:13:30.989Z,19.42
2018-01-15T15:15:57.928Z,16.87
2018-01-15T15:18:24.847Z,16.02
2018-01-15T15:20:51.768Z,16.62
2018-01-15T15:23:18.689Z,16.25
2018-01-15T15:25:45.612Z,17.52
2018-01-15T15:28:12.543Z,17.92
2018-01-15T15:30:39.447Z,17.05
2018-01-15T15:33:06.393Z,16.30
2018-01-15T15:35:33.295Z,16.20
2018-01-15T15:38:00.248Z,17.75
2018-01-15T15:40:27.147Z,17.80
2018-01-15T15:42:54.828Z,17.65
2018-01-15T15:45:21.763Z,17.77
2018-01-15T15:47:49.439Z,17.48
2018-01-15T15:50:16.350Z,17.27
2018-01-15T15:52:44.056Z,17.42
2018-01-15T15:55:10.963Z,14.90
2018-01-15T15:57:38.660Z,17.95
2018-01-15T16:00:05.564Z,17.10
2018-01-15T16:02:33.265Z,17.35
2018-01-15T16:05:00.213Z,17.33
2018-01-15T16:07:27.156Z,17.50
2018-01-15T16:09:54.076Z,16.12
2018-01-15T16:12:20.992Z,18.15
2018-01-15T16:14:47.909Z,16.08
2018-01-15T16:17:14.850Z,17.10
2018-01-15T16:19:41.764Z,15.93
2018-01-15T16:22:32.336Z,17.05
2018-01-15T16:25:00.010Z,18.05
2018-01-15T16:27:26.975Z,18.40
2018-01-15T16:29:53.901Z,16.80
2018-01-15T16:32:20.829Z,17.75
2018-01-15T16:34:48.506Z,16.62
2018-01-15T16:37:16.200Z,17.52
2018-01-15T16:39:43.117Z,16.10
2018-01-15T16:42:10.069Z,15.93
2018-01-15T16:44:37.045Z,16.67
2018-01-15T16:47:03.969Z,17.30
2018-01-15T16:49:31.217Z,16.92
2018-01-15T16:51:58.160Z,19.10
2018-01-15T16:54:25.090Z,18.12
2018-01-15T16:56:52.031Z,16.02
2018-01-15T16:59:18.949Z,17.83
2018-01-15T17:01:45.879Z,18.48
2018-01-15T17:04:12.784Z,17.02
2018-01-15T17:06:39.696Z,15.85
2018-01-15T17:09:06.622Z,16.55
2018-01-15T17:11:33.560Z,17.02
2018-01-15T17:14:00.509Z,18.50
2018-01-15T17:16:27.429Z,18.83
2018-01-15T17:18:54.356Z,16.45
2018-01-15T17:21:21.278Z,18.62
2018-01-15T17:23:48.224Z,17.12
2018-01-15T17:26:15.136Z,18.80
2018-01-15T17:28:42.981Z,14.70
2018-01-15T17:31:09.888Z,19.00
2018-01-15T17:33:37.592Z,19.73
2018-01-15T17:36:04.510Z,18.23
2018-01-15T17:38:31.446Z,20.67
2018-01-15T17:40:59.156Z,18.30
2018-01-15T17:43:26.070Z,16.58
2018-01-15T17:45:52.996Z,17.70
2018-01-15T17:48:20.698Z,15.45
2018-01-15T17:50:47.605Z,20.08
2018-01-15T17:53:14.556Z,15.68
2018-01-15T17:55:42.236Z,18.15
2018-01-15T17:58:09.217Z,19.27
2018-01-15T18:00:36.160Z,19.65
2018-01-15T18:03:03.865Z,19.20
2018-01-15T18:05:30.809Z,17.95
2018-01-15T18:07:58.506Z,19.08
2018-01-15T18:10:25.424Z,19.80
2018-01-15T18:12:52.353Z,19.02
2018-01-15T18:15:19.302Z,21.95
2018-01-15T18:17:46.225Z,19.60
2018-01-15T18:20:14.164Z,16.95
2018-01-15T18:22:41.160Z,19.25
2018-01-15T18:25:08.076Z,19.98
2018-01-15T18:27:35.026Z,17.75
2018-01-15T18:30:01.930Z,21.10
2018-01-15T18:32:28.887Z,19.65
2018-01-15T18:34:55.858Z,20.45
2018-01-15T18:37:22.814Z,17.08
2018-01-15T18:39:49.745Z,20.98
2018-01-15T18:42:16.705Z,19.12
2018-01-15T18:44:44.417Z,20.00
2018-01-15T18:47:11.337Z,22.23
2018-01-15T18:49:38.271Z,21.30
2018-01-15T18:52:05.221Z,22.20
2018-01-15T18:54:32.140Z,23.65
2018-01-15T18:56:59.839Z,22.30
2018-01-15T18:59:30.213Z,28.15
2018-01-15T19:01:57.173Z,21.30
2018-01-15T19:04:24.075Z,20.20
2018-01-15T19:06:51.932Z,23.62
2018-01-15T19:09:18.839Z,20.05
2018-01-15T19:11:47.541Z,21.85
2018-01-15T19:14:14.443Z,22.70
2018-01-15T19:16:42.882Z,18.30
2018-01-15T19:19:09.787Z,22.27
2018-01-15T19:21:36.719Z,21.40
2018-01-15T19:24:03.635Z,19.37
2018-01-15T19:26:30.565Z,22.58
2018-01-15T19:28:57.487Z,20.02
2018-01-15T19:31:24.411Z,23.83
2018-01-15T19:33:53.115Z,21.48
2018-01-15T19:36:20.035Z,22.40
2018-01-15T19:38:46.950Z,17.92
2018-01-15T19:41:13.888Z,21.25
2018-01-15T19:43:40.796Z,19.45
2018-01-15T19:46:07.734Z,19.02
2018-01-15T19:48:34.657Z,20.15
2018-01-15T19:51:01.591Z,22.02
2018-01-15T19:53:28.532Z,21.60
2018-01-15T19:55:55.492Z,23.52
2018-01-15T19:58:22.364Z,22.37
2018-01-15T20:00:49.289Z,22.00
2018-01-15T20:03:16.983Z,21.37
2018-01-15T20:05:43.909Z,17.75
2018-01-15T20:08:10.820Z,21.40
2018-01-15T20:10:39.764Z,19.40
2018-01-15T20:13:06.736Z,21.87
2018-01-15T20:15:33.652Z,20.98
2018-01-15T20:18:00.586Z,19.02
2018-01-15T20:20:27.510Z,21.55
2018-01-15T20:22:55.243Z,21.83
2018-01-15T20:25:24.244Z,17.15
2018-01-15T20:27:51.189Z,15.50
2018-01-15T20:30:18.112Z,20.12
2018-01-15T20:32:45.061Z,19.62
2018-01-15T20:35:11.994Z,18.45
2018-01-15T20:37:38.905Z,19.40
2018-01-15T20:40:05.828Z,19.02
2018-01-15T20:42:33.545Z,17.70
2018-01-15T20:45:00.536Z,14.15
2018-01-15T20:47:27.432Z,19.12
2018-01-15T20:49:54.364Z,17.45
2018-01-15T20:52:21.305Z,18.20
2018-01-15T20:54:48.216Z,17.30
2018-01-15T20:57:15.913Z,23.10
2018-01-15T20:59:42.824Z,19.80
2018-01-15T21:02:10.527Z,19.10
2018-01-15T21:04:37.441Z,20.10
2018-01-15T21:07:06.144Z,20.30
2018-01-15T21:09:33.075Z,17.05
2018-01-15T21:12:00.012Z,19.65
2018-01-15T21:14:26.925Z,19.50
2018-01-15T21:16:53.863Z,20.37
2018-01-15T21:19:22.275Z,19.95
2018-01-15T21:21:49.977Z,18.35
2018-01-15T21:24:16.898Z,22.30
2018-01-15T21:26:43.808Z,19.48
2018-01-15T21:29:10.736Z,18.27
2018-01-15T21:31:37.660Z,19.33
2018-01-15T21:34:04.588Z,19.55
2018-01-15T21:36:31.496Z,17.30
2018-01-15T21:38:59.194Z,18.23
2018-01-15T21:41:26.109Z,18.20
2018-01-15T21:43:53.806Z,15.88
2018-01-15T21:46:20.719Z,18.30
2018-01-15T21:48:48.429Z,18.80
2018-01-15T21:51:15.347Z,16.92
2018-01-15T21:53:42.279Z,18.98
2018-01-15T21:56:09.197Z,19.45
2018-01-15T21:58:36.119Z,17.58
2018-01-15T22:01:03.044Z,16.02
2018-01-15T22:03:29.983Z,16.52
2018-01-15T22:05:56.884Z,16.48
2018-01-15T22:08:24.593Z,17.10
2018-01-15T22:10:51.500Z,19.12
2018-01-15T22:13:18.424Z,18.02
2018-01-15T22:15:45.332Z,18.12
2018-01-15T22:18:12.267Z,18.10
2018-01-15T22:20:39.172Z,16.75
2018-01-15T22:23:06.117Z,17.20
2018-01-15T22:25:33.797Z,15.27
2018-01-15T22:28:00.725Z,14.40
2018-01-15T22:30:27.636Z,16.27
2018-01-15T22:32:54.584Z,16.70
2018-01-15T22:35:21.503Z,17.35
2018-01-15T22:37:49.156Z,17.15
2018-01-15T22:40:16.068Z,15.68
2018-01-15T22:42:43.007Z,17.17
2018-01-15T22:45:10.685Z,15.98
2018-01-15T22:47:37.617Z,14.57
2018-01-15T22:50:05.300Z,16.70
2018-01-15T22:52:32.238Z,16.65
2018-01-15T22:54:59.152Z,15.90
2018-01-15T22:57:26.856Z,14.85
2018-01-15T22:59:53.770Z,19.45
2018-01-15T23:02:21.476Z,17.00
2018-01-15T23:04:48.404Z,15.98
2018-01-15T23:07:15.333Z,13.50
2018-01-15T23:09:42.248Z,14.80
2018-01-15T23:12:09.181Z,14.50
2018-01-15T23:14:36.097Z,13.35
2018-01-15T23:17:03.040Z,15.48
2018-01-15T23:19:29.956Z,16.05
2018-01-15T23:21:56.909Z,12.25
2018-01-15T23:24:23.836Z,14.50
2018-01-15T23:26:50.790Z,16.98
2018-01-15T23:29:19.567Z,13.35
2018-01-15T23:31:47.528Z,13.00
2018-01-15T23:34:14.469Z,14.80
2018-01-15T23:36:41.408Z,13.60
2018-01-15T23:39:08.345Z,13.77
2018-01-15T23:41:35.284Z,9.82
2018-01-15T23:44:02.192Z,16.00
2018-01-15T23:46:29.124Z,14.50
2018-01-15T23:48:57.809Z,15.07
2018-01-15T23:51:25.542Z,13.80
2018-01-15T23:53:52.451Z,11.73
2018-01-15T23:56:19.380Z,12.93
2018-01-15T23:58:46.296Z,13.38
